Sutton, Vermont
Current Conditions -  °F | °C
As of 3:15 AM on Thursday 18 Dec 2014 (Local Time) from KCDA Reporting Station
Light Snow Light Snow  
Wind Chill: 33°   Ceiling: 1200
Heat Index: 33°   Visibility: 2mi
Dew Point: 32°   Wind: 3mph
Humidity: 95%   Direction: 260°W
Pressure: 29.69"   Gusts: NA
Location:  44.63°N, 72.03°W
Report Text: KCDA 180815Z AUTO 26003KT 2SM -SN OVC012 01/00 A2969 RMK AO2 T00051002
Loading
Personal Weather Stations






























Interactive Weather Map New forecast layout! Learn more

10-Day Weather Forecast

Advertisements
Track Severe Weather on mobile